Time;durP1;ratioP1;P1;durP2;ratioP2;P2;SDS_P1;SDS_P2;PMS_P1;PMS_P2;Temp;Humidity;BMP_temperature;BMP_pressure;BME280_temperature;BME280_humidity;BME280_pressure;Samples;Min_cycle;Max_cycle;Signal;HPM_P1;HPM_P2
2022/08/18 00:01:21;;;;;;;6.55;5.57;;;;;;;26.37;47.77;99353.69;5121500;28;20301;-73
2022/08/18 00:03:47;;;;;;;8.05;5.55;;;;;;;26.44;48.14;99359.63;5121725;28;20329;-73
2022/08/18 00:06:12;;;;;;;9.35;6.00;;;;;;;26.51;47.49;99357.44;5121732;28;20099;-72
2022/08/18 00:08:38;;;;;;;17.02;5.88;;;;;;;26.47;47.95;99347.41;5121145;28;20210;-72
2022/08/18 00:11:05;;;;;;;11.15;5.93;;;;;;;26.52;47.83;99358.25;5120987;28;20043;-72
2022/08/18 00:13:30;;;;;;;13.15;6.13;;;;;;;26.45;47.88;99355.03;5103700;28;20284;-72
2022/08/18 00:15:56;;;;;;;10.60;6.82;;;;;;;26.43;47.87;99354.47;5122623;28;20039;-72
2022/08/18 00:18:21;;;;;;;9.80;5.88;;;;;;;26.40;48.33;99353.13;5120916;28;20023;-72
2022/08/18 00:20:47;;;;;;;9.98;6.28;;;;;;;26.24;48.37;99340.66;5120901;28;20036;-72
2022/08/18 00:23:13;;;;;;;10.82;6.32;;;;;;;26.28;48.37;99363.44;5121051;28;20116;-73
2022/08/18 00:25:39;;;;;;;9.43;6.53;;;;;;;26.24;48.46;99355.03;5121196;28;20027;-72
2022/08/18 00:28:04;;;;;;;13.45;6.90;;;;;;;26.21;49.03;99361.00;5125047;27;20031;-72
2022/08/18 00:30:31;;;;;;;17.52;6.47;;;;;;;26.10;49.32;99353.97;5109026;27;20234;-72
2022/08/18 00:32:58;;;;;;;8.98;6.13;;;;;;;25.99;49.40;99353.13;5128399;27;20097;-73
2022/08/18 00:35:26;;;;;;;10.98;5.80;;;;;;;26.14;49.00;99357.75;5123527;27;20081;-73
2022/08/18 00:37:54;;;;;;;9.65;6.15;;;;;;;26.12;49.22;99350.97;5126626;27;20321;-72
2022/08/18 00:40:22;;;;;;;15.63;6.05;;;;;;;26.20;49.30;99353.13;5126240;27;20067;-72
2022/08/18 00:42:52;;;;;;;9.50;6.10;;;;;;;26.17;49.05;99348.25;5124049;28;20050;-73
2022/08/18 00:45:26;;;;;;;10.70;6.20;;;;;;;26.11;49.47;99352.06;5124191;27;20031;-72
2022/08/18 00:47:53;;;;;;;10.10;6.38;;;;;;;26.30;48.87;99351.22;5114390;27;20085;-73
2022/08/18 00:50:26;;;;;;;10.13;5.82;;;;;;;26.30;48.41;99343.06;5126390;27;20035;-72
2022/08/18 00:52:59;;;;;;;10.80;6.25;;;;;;;26.34;48.51;99349.63;5124382;27;20240;-72
2022/08/18 00:55:28;;;;;;;9.68;6.03;;;;;;;26.27;48.55;99359.09;5125517;27;20050;-73
2022/08/18 00:58:00;;;;;;;9.88;6.05;;;;;;;26.23;49.01;99358.03;5123803;27;20328;-73
2022/08/18 01:00:26;;;;;;;9.55;5.70;;;;;;;26.12;49.03;99353.69;5124442;27;20054;-72
2022/08/18 01:02:57;;;;;;;7.72;5.50;;;;;;;26.10;48.98;99356.69;5123605;28;20100;-73
2022/08/18 01:05:33;;;;;;;7.38;6.00;;;;;;;26.15;49.08;99366.72;5123017;27;20032;-72
2022/08/18 01:07:59;;;;;;;10.35;5.80;;;;;;;26.04;49.02;99355.88;5130017;27;20031;-73
2022/08/18 01:10:25;;;;;;;10.27;5.50;;;;;;;26.09;48.84;99357.75;5124587;27;20312;-72
2022/08/18 01:12:55;;;;;;;11.50;5.65;;;;;;;26.27;48.23;99359.91;5108579;28;20064;-73
2022/08/18 01:15:23;;;;;;;12.75;5.95;;;;;;;26.10;48.47;99356.69;5105890;27;20035;-72
2022/08/18 01:23:22;;;;;;;10.85;5.63;;;;;;;26.09;48.66;99365.91;5125160;27;19929;-73
2022/08/18 01:25:59;;;;;;;7.07;5.15;;;;;;;26.05;49.08;99362.94;5123619;27;20063;-73
2022/08/18 01:28:38;;;;;;;9.95;5.75;;;;;;;26.16;48.71;99368.34;5107875;28;20028;-72
2022/08/18 01:31:05;;;;;;;10.13;5.60;;;;;;;26.03;48.74;99367.81;5112295;27;20039;-72
2022/08/18 01:33:35;;;;;;;11.88;5.57;;;;;;;26.14;48.50;99354.22;5106576;27;20038;-73
2022/08/18 01:36:20;;;;;;;10.45;5.47;;;;;;;26.18;48.42;99363.47;5123830;27;20031;-72
2022/08/18 01:38:49;;;;;;;7.15;5.25;;;;;;;26.21;48.00;99358.28;5122907;27;20031;-72
2022/08/18 01:41:16;;;;;;;10.30;5.18;;;;;;;26.02;48.89;99352.63;5104490;28;20031;-72
2022/08/18 01:43:41;;;;;;;7.30;5.38;;;;;;;26.01;49.02;99353.69;5123182;27;20042;-72
2022/08/18 01:46:07;;;;;;;8.27;5.30;;;;;;;26.18;48.26;99366.16;5108952;27;20262;-72
2022/08/18 01:48:35;;;;;;;9.57;5.88;;;;;;;26.04;48.38;99353.16;5106464;28;20328;-72
2022/08/18 01:51:08;;;;;;;8.57;5.15;;;;;;;25.95;48.70;99352.06;5105346;27;20034;-72
2022/08/18 01:53:35;;;;;;;9.43;5.03;;;;;;;26.07;48.41;99352.59;5106595;27;20114;-71
2022/08/18 01:56:04;;;;;;;9.00;5.63;;;;;;;26.18;47.68;99352.59;5104945;27;20659;-71
2022/08/18 01:58:29;;;;;;;10.00;5.32;;;;;;;26.21;47.46;99352.88;5124855;27;20331;-72
2022/08/18 02:00:57;;;;;;;10.43;5.60;;;;;;;26.11;47.80;99344.75;5123048;27;20030;-72
2022/08/18 02:03:25;;;;;;;8.88;4.78;;;;;;;26.12;47.94;99361.84;5124110;27;20118;-73
2022/08/18 02:05:58;;;;;;;7.70;5.00;;;;;;;25.86;47.94;99334.69;5123140;27;20039;-73
2022/08/18 02:08:23;;;;;;;8.65;5.60;;;;;;;26.06;47.75;99350.97;5123266;27;20266;-73
2022/08/18 02:10:49;;;;;;;7.75;4.85;;;;;;;26.14;47.78;99354.22;5123703;27;20028;-72
2022/08/18 02:13:14;;;;;;;9.15;5.03;;;;;;;26.14;47.47;99365.09;5124529;27;20031;-72
2022/08/18 02:15:41;;;;;;;8.02;4.88;;;;;;;26.05;47.74;99340.41;5105068;28;20072;-73
2022/08/18 02:18:12;;;;;;;8.52;5.07;;;;;;;26.02;47.71;99346.38;5122670;27;20031;-72
2022/08/18 02:20:38;;;;;;;14.60;5.30;;;;;;;26.09;47.75;99352.34;5122388;27;20442;-73
2022/08/18 02:23:03;;;;;;;10.48;4.72;;;;;;;25.98;47.68;99347.97;5121723;28;20072;-72
2022/08/18 02:25:29;;;;;;;8.18;5.32;;;;;;;26.06;47.77;99355.59;5123004;27;20043;-73
2022/08/18 02:27:55;;;;;;;8.60;5.32;;;;;;;26.11;47.35;99360.22;5122915;27;20228;-72
2022/08/18 02:30:21;;;;;;;8.32;5.53;;;;;;;25.82;47.83;99327.38;5106731;27;20236;-72
2022/08/18 02:32:47;;;;;;;8.05;4.85;;;;;;;26.10;47.65;99359.38;5122955;27;20306;-72
2022/08/18 02:35:12;;;;;;;7.85;5.10;;;;;;;26.06;47.76;99355.59;5123643;27;20313;-73
2022/08/18 02:37:42;;;;;;;7.45;5.15;;;;;;;26.14;47.90;99349.63;5123541;27;20032;-72
2022/08/18 02:40:09;;;;;;;11.50;5.47;;;;;;;25.95;47.74;99332.25;5123261;27;20035;-73
2022/08/18 02:42:37;;;;;;;12.70;4.80;;;;;;;26.10;47.78;99343.13;5105720;28;20030;-73
2022/08/18 02:45:03;;;;;;;8.98;5.88;;;;;;;26.10;47.66;99343.13;5123234;27;20191;-72
2022/08/18 02:47:28;;;;;;;8.60;5.43;;;;;;;26.16;47.43;99354.78;5122759;27;20050;-73
2022/08/18 02:49:54;;;;;;;8.73;5.13;;;;;;;25.99;47.43;99342.28;5104419;27;20229;-73
2022/08/18 02:52:19;;;;;;;13.07;5.50;;;;;;;26.00;47.84;99349.34;5122149;27;20035;-72
2022/08/18 02:54:46;;;;;;;8.40;5.18;;;;;;;26.07;47.49;99357.22;5122883;27;20028;-72
2022/08/18 02:57:11;;;;;;;8.52;5.30;;;;;;;26.00;47.66;99351.22;5105479;27;20027;-72
2022/08/18 02:59:38;;;;;;;8.00;5.68;;;;;;;25.89;47.88;99345.00;5123902;27;20284;-72
2022/08/18 03:02:06;;;;;;;9.77;5.50;;;;;;;25.92;47.64;99355.31;5124809;27;20062;-72
2022/08/18 03:04:32;;;;;;;15.60;5.80;;;;;;;26.20;47.27;99364.81;5121526;28;20034;-72
2022/08/18 03:07:02;;;;;;;8.57;5.63;;;;;;;26.16;47.70;99357.50;5121338;27;20027;-72
2022/08/18 03:09:28;;;;;;;8.25;5.90;;;;;;;25.97;47.78;99370.75;5123068;27;20031;-72
2022/08/18 03:11:54;;;;;;;12.20;6.07;;;;;;;26.00;47.68;99364.78;5122784;27;20046;-72
2022/08/18 03:14:20;;;;;;;10.57;6.20;;;;;;;25.98;47.72;99367.78;5103416;28;20026;-72
2022/08/18 03:16:47;;;;;;;12.02;5.50;;;;;;;25.90;48.34;99372.94;5122766;28;20042;-72
2022/08/18 03:19:15;;;;;;;8.80;5.97;;;;;;;25.88;48.47;99373.22;5121396;28;20273;-72
2022/08/18 03:21:42;;;;;;;11.77;5.60;;;;;;;25.80;48.77;99371.03;5122413;27;20063;-72
2022/08/18 03:24:08;;;;;;;8.07;5.53;;;;;;;25.70;48.67;99366.41;5103416;28;20325;-72
2022/08/18 03:26:34;;;;;;;11.10;5.95;;;;;;;25.70;48.84;99362.91;5102553;28;20076;-72
2022/08/18 03:29:00;;;;;;;9.90;5.38;;;;;;;25.80;48.74;99365.63;5124169;27;20105;-72
2022/08/18 03:31:28;;;;;;;13.00;5.50;;;;;;;25.73;48.90;99368.59;5122667;28;20257;-72
2022/08/18 03:33:58;;;;;;;8.35;5.47;;;;;;;25.68;49.11;99373.19;5121600;28;20027;-72
2022/08/18 03:36:28;;;;;;;9.77;5.75;;;;;;;25.70;48.92;99366.41;5104151;28;20353;-72
2022/08/18 03:38:54;;;;;;;17.00;6.45;;;;;;;25.59;49.38;99374.78;5122316;28;20163;-72
2022/08/18 03:41:22;;;;;;;9.10;5.43;;;;;;;25.58;49.33;99367.72;5120741;28;20295;-72
2022/08/18 03:43:49;;;;;;;10.93;5.88;;;;;;;25.67;49.42;99371.56;5121269;28;20332;-72
2022/08/18 03:46:16;;;;;;;8.07;6.07;;;;;;;25.62;49.64;99375.06;5122489;28;20084;-72
2022/08/18 03:48:42;;;;;;;11.32;5.95;;;;;;;25.75;49.18;99371.03;5121453;28;20037;-72
2022/08/18 03:51:21;;;;;;;9.73;6.22;;;;;;;25.57;49.40;99357.97;5123095;28;20298;-72
2022/08/18 03:53:48;;;;;;;9.57;6.32;;;;;;;25.61;49.67;99378.03;5122063;28;20375;-72
2022/08/18 03:56:16;;;;;;;9.93;5.85;;;;;;;25.68;49.16;99375.91;5122320;28;20020;-73
2022/08/18 03:58:46;;;;;;;11.63;6.30;;;;;;;25.66;49.35;99380.78;5122440;28;20034;-73
2022/08/18 04:01:17;;;;;;;8.80;5.80;;;;;;;25.60;49.63;99366.38;5107678;28;20026;-72
2022/08/18 04:03:44;;;;;;;9.82;5.65;;;;;;;25.60;49.82;99376.41;5125280;28;20226;-72
2022/08/18 04:06:17;;;;;;;10.45;5.75;;;;;;;25.70;49.74;99368.31;5124494;27;20329;-72
2022/08/18 04:08:43;;;;;;;12.63;6.28;;;;;;;25.66;49.86;99384.31;5127123;27;20142;-72
2022/08/18 04:11:09;;;;;;;11.57;6.03;;;;;;;25.68;49.75;99382.16;5107969;27;20036;-72
2022/08/18 04:13:36;;;;;;;13.30;6.45;;;;;;;25.65;50.49;99387.25;5126566;27;20050;-73
2022/08/18 04:16:01;;;;;;;12.27;6.93;;;;;;;25.67;50.26;99390.56;5108345;27;20119;-72
2022/08/18 04:18:27;;;;;;;18.23;6.80;;;;;;;25.57;50.03;99368.81;5127027;27;20058;-73
2022/08/18 04:20:53;;;;;;;20.05;6.45;;;;;;;25.65;50.16;99387.25;5109084;28;20232;-73
2022/08/18 04:23:18;;;;;;;12.30;6.60;;;;;;;25.82;49.76;99393.28;5126450;27;20035;-72
2022/08/18 04:25:44;;;;;;;8.00;6.10;;;;;;;25.91;49.28;99391.66;5125543;27;20046;-72
2022/08/18 04:28:09;;;;;;;8.50;5.32;;;;;;;25.90;49.51;99397.34;5107635;27;20200;-72
2022/08/18 04:30:36;;;;;;;9.20;5.70;;;;;;;25.85;49.51;99390.03;5125696;27;20059;-72
2022/08/18 04:33:01;;;;;;;9.65;5.80;;;;;;;25.96;49.88;99397.06;5107365;27;20060;-72
2022/08/18 04:35:28;;;;;;;13.85;6.22;;;;;;;25.99;49.93;99404.69;5126400;27;20035;-72
2022/08/18 04:37:54;;;;;;;12.35;6.10;;;;;;;25.94;50.05;99406.56;5125858;27;20025;-72
2022/08/18 04:40:20;;;;;;;10.20;6.45;;;;;;;25.91;50.32;99402.50;5126971;27;20046;-72
2022/08/18 04:42:45;;;;;;;12.95;5.80;;;;;;;25.95;49.88;99400.88;5126494;27;20088;-72
2022/08/18 04:45:11;;;;;;;10.95;5.53;;;;;;;26.19;49.09;99403.88;5125794;27;20304;-72
2022/08/18 04:47:40;;;;;;;9.65;5.88;;;;;;;26.08;49.19;99403.06;5107817;27;20027;-72
2022/08/18 04:50:07;;;;;;;13.95;5.75;;;;;;;26.22;49.05;99402.53;5124707;27;20091;-72
2022/08/18 04:55:16;;;;;;;13.50;6.05;;;;;;;26.24;49.01;99401.16;5123649;27;20099;-72
2022/08/18 04:57:41;;;;;;;13.48;5.95;;;;;;;26.42;48.75;99404.44;5125746;27;20019;-72
2022/08/18 05:00:09;;;;;;;10.40;5.00;;;;;;;26.51;48.44;99397.34;5106736;27;20043;-73
2022/08/18 05:02:35;;;;;;;8.70;4.95;;;;;;;26.69;47.65;99397.59;5126423;27;20043;-72
2022/08/18 05:05:02;;;;;;;10.07;5.35;;;;;;;26.73;47.30;99386.97;5126261;27;20030;-72
2022/08/18 05:07:28;;;;;;;12.55;5.78;;;;;;;26.89;46.87;99402.13;5107343;27;20337;-72
2022/08/18 05:09:53;;;;;;;13.32;5.85;;;;;;;27.09;46.74;99405.94;5124308;27;20034;-72
2022/08/18 05:12:19;;;;;;;10.13;5.03;;;;;;;27.16;46.21;99401.00;5124532;27;20035;-72
2022/08/18 05:14:45;;;;;;;10.30;5.38;;;;;;;27.33;45.51;99406.88;5124632;27;20293;-73
2022/08/18 05:17:11;;;;;;;11.45;5.43;;;;;;;27.46;45.29;99403.56;5126626;27;20028;-72
2022/08/18 05:19:36;;;;;;;11.48;5.18;;;;;;;27.69;44.97;99402.06;5127164;27;20319;-73
2022/08/18 05:22:03;;;;;;;11.48;5.20;;;;;;;27.80;44.74;99409.06;5125753;27;20046;-72
2022/08/18 05:24:30;;;;;;;12.45;5.45;;;;;;;27.73;44.32;99392.25;5104914;28;20036;-72
2022/08/18 05:26:55;;;;;;;12.00;5.68;;;;;;;28.07;43.91;99392.25;5123214;27;20035;-73
2022/08/18 05:29:21;;;;;;;13.23;5.80;;;;;;;28.22;43.38;99388.63;5125762;27;20022;-72
2022/08/18 05:31:49;;;;;;;9.77;5.00;;;;;;;28.35;43.37;99404.31;5124216;27;20220;-72
2022/08/18 05:34:16;;;;;;;13.02;5.68;;;;;;;28.20;42.74;99386.19;5125708;27;20040;-72
2022/08/18 05:36:47;;;;;;;11.05;5.47;;;;;;;28.48;43.00;99408.28;5124005;27;20269;-72
2022/08/18 05:39:34;;;;;;;10.10;5.38;;;;;;;28.63;42.21;99396.41;5123449;28;20453;-72
2022/08/18 05:42:05;;;;;;;9.25;4.97;;;;;;;28.70;41.81;99414.03;5083371;28;20225;-73
2022/08/18 05:44:34;;;;;;;14.02;5.30;;;;;;;28.88;41.81;99415.22;5087129;28;20070;-73
2022/08/18 05:47:05;;;;;;;7.75;5.30;;;;;;;29.07;41.36;99405.19;5083746;28;20313;-72
2022/08/18 05:49:33;;;;;;;12.10;5.68;;;;;;;29.32;41.52;99400.53;5083709;28;20059;-72
2022/08/18 05:52:04;;;;;;;14.65;5.63;;;;;;;29.39;41.13;99396.31;5081888;28;20051;-72
2022/08/18 05:57:32;;;;;;;12.30;5.65;;;;;;;29.59;40.52;99391.72;5083274;28;20039;-72
2022/08/18 06:00:03;;;;;;;14.10;6.03;;;;;;;29.66;40.32;99392.16;5085958;28;20020;-72
2022/08/18 06:02:37;;;;;;;13.90;5.30;;;;;;;29.59;39.90;99392.53;5082810;28;20031;-71
2022/08/18 06:05:10;;;;;;;19.83;5.82;;;;;;;29.86;39.67;99402.75;5081818;28;20074;-72
2022/08/18 06:07:36;;;;;;;15.63;5.63;;;;;;;29.62;39.77;99411.03;5082939;28;20130;-72
2022/08/18 06:10:04;;;;;;;10.25;4.78;;;;;;;29.75;39.88;99396.63;5084508;28;20096;-72
2022/08/18 06:12:35;;;;;;;6.82;4.57;;;;;;;29.99;39.25;99412.09;5083533;28;20338;-72
2022/08/18 06:15:21;;;;;;;7.00;4.78;;;;;;;30.23;38.31;99422.94;5082797;28;20016;-72
2022/08/18 06:17:55;;;;;;;9.55;5.18;;;;;;;30.34;38.94;99421.66;5093338;28;20278;-71
2022/08/18 06:20:39;;;;;;;10.20;5.22;;;;;;;30.56;39.18;99424.53;5081511;28;20059;-72
2022/08/18 06:23:23;;;;;;;9.50;4.53;;;;;;;30.36;38.45;99431.19;5081593;28;20048;-72
2022/08/18 06:26:12;;;;;;;7.28;4.57;;;;;;;30.64;37.88;99410.22;5083356;28;20432;-73
2022/08/18 06:29:14;;;;;;;8.98;4.97;;;;;;;30.65;37.51;99425.50;5081775;28;20046;-73
2022/08/18 06:31:54;;;;;;;8.60;4.72;;;;;;;30.91;37.50;99425.00;5082604;28;20036;-72
2022/08/18 06:34:19;;;;;;;7.70;4.32;;;;;;;31.00;38.10;99423.97;5082296;28;20035;-72
2022/08/18 06:36:58;;;;;;;7.85;4.55;;;;;;;31.15;37.26;99417.41;5084005;28;20350;-72
2022/08/18 06:39:33;;;;;;;13.70;5.03;;;;;;;31.26;37.34;99427.06;5085503;28;20104;-73
2022/08/18 06:41:59;;;;;;;9.55;5.10;;;;;;;31.45;36.83;99415.97;5119539;27;20254;-72
2022/08/18 06:44:43;;;;;;;6.50;4.45;;;;;;;31.57;35.76;99401.75;5138651;27;20124;-72
2022/08/18 06:47:29;;;;;;;8.48;4.35;;;;;;;31.98;36.26;99423.53;5139135;27;20090;-73
2022/08/18 06:50:04;;;;;;;7.97;4.57;;;;;;;32.05;35.17;99419.22;5143473;27;20052;-72
2022/08/18 06:52:34;;;;;;;11.82;5.07;;;;;;;32.47;34.93;99422.59;5137466;27;20031;-73
2022/08/18 06:55:06;;;;;;;9.93;4.45;;;;;;;32.73;34.20;99427.41;5143014;27;20023;-73
2022/08/18 06:57:37;;;;;;;15.48;4.43;;;;;;;32.73;33.90;99420.00;5143587;27;20054;-73
2022/08/18 07:00:16;;;;;;;8.68;4.65;;;;;;;32.95;34.28;99403.47;5143337;27;20035;-73
2022/08/18 07:03:06;;;;;;;7.00;4.30;;;;;;;33.24;33.55;99404.84;5143202;27;20070;-73
2022/08/18 07:05:34;;;;;;;9.52;4.30;;;;;;;33.43;33.27;99412.84;5140235;27;20027;-73
2022/08/18 07:08:20;;;;;;;20.50;4.80;;;;;;;33.41;32.87;99413.16;5140378;27;20031;-73
2022/08/18 07:10:51;;;;;;;9.82;4.65;;;;;;;33.66;33.10;99408.00;5137536;27;20038;-73
2022/08/18 07:13:28;;;;;;;10.38;4.80;;;;;;;33.40;32.55;99402.50;5120930;27;20086;-73
2022/08/18 07:16:13;;;;;;;7.20;4.45;;;;;;;33.38;32.75;99405.56;5139132;27;20030;-73
2022/08/18 07:18:39;;;;;;;8.38;4.10;;;;;;;33.30;32.76;99395.38;5139230;27;20027;-73
2022/08/18 07:21:04;;;;;;;9.30;4.40;;;;;;;33.49;32.31;99403.31;5117523;28;20024;-73
2022/08/18 07:23:38;;;;;;;11.55;4.18;;;;;;;33.53;32.89;99405.09;5140999;27;20042;-73
2022/08/18 07:26:10;;;;;;;10.18;4.47;;;;;;;33.73;32.52;99400.91;5122763;27;20227;-72
2022/08/18 07:28:43;;;;;;;10.82;4.70;;;;;;;33.77;32.33;99404.59;5141261;27;20262;-73
2022/08/18 07:31:09;;;;;;;;;;;;;;;33.59;32.53;99403.00;5127298;27;20027;-73
2022/08/18 07:33:35;;;;;;;7.93;4.50;;;;;;;33.75;32.73;99403.31;5120593;28;19925;-72
2022/08/18 07:36:05;;;;;;;9.15;4.05;;;;;;;33.86;32.83;99405.44;5102894;28;20043;-72
2022/08/18 07:38:53;;;;;;;13.25;4.47;;;;;;;34.00;31.62;99401.72;5124088;28;20065;-72
2022/08/18 07:41:41;;;;;;;10.13;4.30;;;;;;;34.08;32.26;99395.38;5119238;28;20044;-73
2022/08/18 07:44:27;;;;;;;9.23;4.50;;;;;;;34.13;32.02;99398.78;5105671;28;20053;-72
2022/08/18 07:47:17;;;;;;;6.00;4.43;;;;;;;34.13;31.19;99397.97;5121324;28;20028;-73
2022/08/18 07:49:44;;;;;;;6.38;4.50;;;;;;;34.22;31.77;99399.56;5120278;28;20392;-74
2022/08/18 07:52:21;;;;;;;6.80;3.80;;;;;;;34.47;31.31;99402.63;5123277;28;20329;-72
2022/08/18 07:54:47;;;;;;;9.52;4.57;;;;;;;34.58;31.49;99395.63;5104720;28;20023;-72
2022/08/18 07:57:38;;;;;;;5.85;4.38;;;;;;;34.77;30.90;99381.47;5123344;28;20031;-72
2022/08/18 08:00:11;;;;;;;8.23;4.20;;;;;;;34.68;30.77;99398.00;5119863;28;20081;-73
2022/08/18 08:03:12;;;;;;;6.95;4.13;;;;;;;34.92;30.95;99383.69;5105670;28;20035;-72
2022/08/18 08:05:47;;;;;;;10.13;4.05;;;;;;;34.92;30.56;99383.69;5123824;28;20035;-73
2022/08/18 08:08:40;;;;;;;9.60;4.80;;;;;;;34.89;30.25;99382.41;5122748;28;20032;-72
2022/08/18 08:11:27;;;;;;;6.43;4.25;;;;;;;35.17;31.11;99387.41;5113269;28;20210;-73
2022/08/18 08:14:15;;;;;;;9.35;4.45;;;;;;;35.34;30.28;99372.75;5103920;28;20024;-73
2022/08/18 08:16:50;;;;;;;7.47;3.83;;;;;;;35.55;28.63;99365.31;5118945;28;20019;-73
2022/08/18 08:19:33;;;;;;;7.50;4.20;;;;;;;35.62;28.67;99373.84;5121110;28;20032;-73
2022/08/18 08:22:11;;;;;;;8.75;4.35;;;;;;;35.55;28.52;99370.81;5120076;28;20043;-73
2022/08/18 08:25:07;;;;;;;10.52;4.13;;;;;;;35.80;28.40;99374.50;5121388;28;20035;-73
2022/08/18 08:27:55;;;;;;;11.00;3.83;;;;;;;35.53;28.03;99369.56;5105438;28;20030;-73
2022/08/18 08:30:23;;;;;;;7.15;4.15;;;;;;;35.51;27.57;99367.94;5118964;28;20199;-73
2022/08/18 08:32:54;;;;;;;4.38;3.42;;;;;;;35.73;27.22;99368.72;5123291;28;20337;-71
2022/08/18 08:35:44;;;;;;;3.80;3.42;;;;;;;35.90;27.10;99357.56;5124766;28;20035;-71
2022/08/18 08:38:22;;;;;;;5.28;3.95;;;;;;;36.05;27.71;99362.44;5107720;28;20047;-72
2022/08/18 08:41:02;;;;;;;6.25;3.70;;;;;;;36.06;27.29;99360.50;5120746;28;20035;-73
2022/08/18 08:43:40;;;;;;;5.28;3.40;;;;;;;35.90;25.43;99359.53;5118750;28;20035;-72
2022/08/18 08:46:10;;;;;;;3.47;3.13;;;;;;;35.87;24.95;99362.97;5106058;28;20023;-74
2022/08/18 08:48:41;;;;;;;6.88;3.50;;;;;;;35.95;25.54;99360.13;5124875;27;20073;-73
2022/08/18 08:51:27;;;;;;;6.80;3.67;;;;;;;36.09;24.78;99362.56;5123754;27;20039;-73
2022/08/18 08:54:02;;;;;;;6.32;3.60;;;;;;;36.20;25.20;99346.41;5126834;27;20030;-72
2022/08/18 08:56:38;;;;;;;6.97;3.33;;;;;;;36.28;25.40;99359.28;5126736;27;20042;-73
2022/08/18 08:59:08;;;;;;;5.88;3.65;;;;;;;36.22;24.73;99357.88;5106446;27;20255;-73
2022/08/18 09:02:02;;;;;;;6.93;3.50;;;;;;;36.01;25.55;99347.72;5110141;27;20064;-73
2022/08/18 09:05:20;;;;;;;6.85;3.97;;;;;;;36.14;24.62;99356.84;5084738;27;20051;-73
2022/08/18 09:08:18;;;;;;;4.03;3.08;;;;;;;35.99;25.07;99346.47;5096128;27;20351;-73
2022/08/18 09:11:02;;;;;;;4.50;3.20;;;;;;;36.21;25.16;99348.81;5097442;27;20043;-73
2022/08/18 09:13:47;;;;;;;7.38;3.60;;;;;;;36.36;25.07;99350.94;5126437;27;20679;-73
2022/08/18 09:16:34;;;;;;;6.18;3.22;;;;;;;36.09;25.64;99343.28;5124147;27;20058;-73
2022/08/18 09:19:12;;;;;;;10.55;3.67;;;;;;;36.14;24.39;99343.06;5128262;27;20053;-72
2022/08/18 09:21:47;;;;;;;5.32;3.95;;;;;;;36.25;23.92;99344.22;5125682;27;20031;-74
2022/08/18 09:24:24;;;;;;;12.60;3.95;;;;;;;36.29;24.75;99333.34;5126881;27;20016;-73
2022/08/18 09:27:13;;;;;;;5.90;3.40;;;;;;;36.28;23.94;99327.03;5123787;27;20108;-72
2022/08/18 09:29:54;;;;;;;4.70;3.45;;;;;;;35.98;24.54;99325.56;5107502;27;20023;-73
2022/08/18 09:32:19;;;;;;;7.07;3.63;;;;;;;36.18;24.71;99329.41;5123029;27;20243;-73
2022/08/18 09:35:02;;;;;;;5.68;3.53;;;;;;;36.20;24.77;99330.66;5124613;27;20054;-73
2022/08/18 09:37:32;;;;;;;8.25;3.50;;;;;;;36.24;24.98;99325.25;5122742;27;20229;-72
2022/08/18 09:43:35;;;;;;;8.63;3.70;;;;;;;35.97;24.81;99324.75;5125481;27;20077;-72
2022/08/18 09:46:03;;;;;;;8.20;3.38;;;;;;;36.08;24.52;99316.84;5124858;27;20048;-71
2022/08/18 09:48:40;;;;;;;8.82;3.88;;;;;;;35.61;24.90;99321.88;5126918;27;20035;-73
2022/08/18 09:51:17;;;;;;;4.88;3.70;;;;;;;35.49;24.77;99293.13;5124053;27;20254;-73
2022/08/18 09:53:51;;;;;;;5.65;3.42;;;;;;;35.77;25.33;99320.09;5124643;27;20086;-73
2022/08/18 09:56:37;;;;;;;11.77;4.60;;;;;;;35.93;25.48;99310.06;5126782;27;20031;-73
2022/08/18 09:59:03;;;;;;;6.03;3.85;;;;;;;35.92;24.72;99313.97;5123561;27;20024;-72
2022/08/18 10:01:29;;;;;;;7.50;4.60;;;;;;;35.85;24.94;99307.41;5123424;27;20057;-73
2022/08/18 10:04:17;;;;;;;6.10;3.42;;;;;;;35.89;24.76;99302.81;5124224;27;21252;-73
2022/08/18 10:06:46;;;;;;;10.75;3.58;;;;;;;35.66;25.44;99302.38;5122662;27;20046;-73
2022/08/18 10:09:14;;;;;;;11.43;4.13;;;;;;;35.83;25.72;99294.75;5121647;27;20035;-73
2022/08/18 10:11:49;;;;;;;5.85;3.90;;;;;;;35.85;25.09;99293.63;5112627;27;20068;-73
2022/08/18 10:14:26;;;;;;;5.60;3.90;;;;;;;35.95;25.09;99293.19;5137995;27;20025;-73
2022/08/18 10:17:38;;;;;;;6.13;4.10;;;;;;;35.72;25.78;99282.53;5136354;27;20066;-73
2022/08/18 10:20:19;;;;;;;7.63;3.65;;;;;;;35.83;25.99;99286.50;5093809;27;20050;-73
2022/08/18 10:22:47;;;;;;;4.78;4.10;;;;;;;35.91;24.82;99284.00;5134081;27;20099;-73
2022/08/18 10:25:31;;;;;;;7.00;3.70;;;;;;;35.67;25.44;99281.94;5136669;27;20028;-73
2022/08/18 10:27:56;;;;;;;4.75;4.00;;;;;;;35.82;25.59;99292.34;5118444;28;20055;-73
2022/08/18 10:30:29;;;;;;;8.95;3.90;;;;;;;35.77;25.13;99279.56;5140418;27;20050;-73
2022/08/18 10:32:54;;;;;;;7.10;3.88;;;;;;;35.54;25.89;99275.59;5141702;27;20197;-73
2022/08/18 10:35:35;;;;;;;8.40;3.80;;;;;;;35.74;26.18;99283.00;5135208;27;20039;-73
2022/08/18 10:38:17;;;;;;;6.43;3.88;;;;;;;35.76;26.02;99282.66;5142092;27;20034;-73
2022/08/18 10:40:58;;;;;;;5.47;3.97;;;;;;;35.89;26.78;99270.56;5136614;27;20033;-73
2022/08/18 10:43:40;;;;;;;6.28;4.07;;;;;;;35.97;26.23;99272.41;5139213;27;20030;-73
2022/08/18 10:46:19;;;;;;;5.13;3.72;;;;;;;36.14;25.57;99283.22;5139397;27;20030;-73
2022/08/18 10:48:58;;;;;;;7.28;4.00;;;;;;;36.10;25.62;99276.78;5135711;27;20027;-74
2022/08/18 10:51:52;;;;;;;6.55;4.03;;;;;;;36.18;26.27;99274.25;5138747;27;20062;-74
2022/08/18 10:54:36;;;;;;;7.90;4.15;;;;;;;35.82;25.38;99281.34;5113982;27;20043;-74
2022/08/18 10:57:18;;;;;;;13.75;3.92;;;;;;;35.85;24.84;99269.63;5139723;27;20317;-71
2022/08/18 10:59:57;;;;;;;9.20;4.00;;;;;;;35.67;25.25;99268.97;5141731;27;20027;-72
2022/08/18 11:02:41;;;;;;;5.55;4.05;;;;;;;35.51;25.19;99270.78;5141591;27;20412;-72
2022/08/18 11:05:10;;;;;;;4.57;4.00;;;;;;;35.40;26.20;99270.38;5139660;27;20075;-73
2022/08/18 11:07:41;;;;;;;9.30;4.60;;;;;;;35.36;26.34;99268.63;5139101;27;20045;-73
2022/08/18 11:10:16;;;;;;;5.28;3.85;;;;;;;35.57;25.51;99266.66;5116935;27;20035;-74
2022/08/18 11:13:00;;;;;;;8.88;4.07;;;;;;;35.62;25.58;99247.16;5140715;27;20042;-75
2022/08/18 11:15:32;;;;;;;;;;;;;;;35.56;24.94;99255.97;5141366;27;20029;-73
2022/08/18 11:18:27;;;;;;;7.63;3.80;;;;;;;35.58;25.35;99257.25;5136013;27;19930;-74
2022/08/18 11:20:53;;;;;;;5.15;3.63;;;;;;;35.71;24.97;99252.59;5109862;27;20267;-74
2022/08/18 11:23:19;;;;;;;6.07;4.07;;;;;;;35.67;25.41;99254.41;5123530;28;20283;-74
2022/08/18 11:25:45;;;;;;;9.00;4.72;;;;;;;35.79;25.90;99260.75;5108194;28;20034;-74
2022/08/18 11:28:22;;;;;;;6.65;4.10;;;;;;;35.89;24.38;99251.28;5123533;27;20066;-71
2022/08/18 11:30:51;;;;;;;5.30;3.78;;;;;;;35.84;24.46;99245.97;5123927;27;20027;-73
2022/08/18 11:33:18;;;;;;;6.53;3.75;;;;;;;35.71;24.36;99249.81;5123772;28;20068;-73
2022/08/18 11:35:47;;;;;;;9.40;4.07;;;;;;;35.77;23.45;99249.28;5123895;28;20058;-73
2022/08/18 11:38:15;;;;;;;9.52;3.95;;;;;;;35.68;23.67;99243.06;5124830;28;20027;-73
2022/08/18 11:40:44;;;;;;;7.47;4.03;;;;;;;35.48;24.71;99217.19;5123755;28;20089;-74
2022/08/18 11:43:30;;;;;;;7.10;4.03;;;;;;;35.67;25.30;99227.66;5123470;28;20032;-73
2022/08/18 11:46:10;;;;;;;4.43;3.95;;;;;;;35.75;25.87;99232.28;5122723;28;20130;-72
2022/08/18 11:48:43;;;;;;;7.97;4.40;;;;;;;35.76;24.95;99233.88;5122244;28;20023;-71
2022/08/18 11:51:16;;;;;;;7.72;4.35;;;;;;;35.88;25.66;99232.31;5123817;28;20058;-72
2022/08/18 11:53:47;;;;;;;6.43;4.28;;;;;;;35.92;25.21;99225.78;5124148;28;20027;-72
2022/08/18 11:56:15;;;;;;;8.65;4.30;;;;;;;35.76;24.30;99233.09;5108077;28;20055;-73
2022/08/18 11:58:47;;;;;;;5.25;4.30;;;;;;;35.86;24.38;99229.91;5123593;28;20034;-71
2022/08/18 12:01:32;;;;;;;6.88;4.03;;;;;;;35.98;24.08;99221.66;5123472;28;20031;-72
2022/08/18 12:04:06;;;;;;;9.60;3.63;;;;;;;35.92;23.69;99217.53;5124466;28;20244;-73
2022/08/18 12:06:32;;;;;;;6.15;3.88;;;;;;;36.03;24.53;99223.38;5127817;28;20102;-72
2022/08/18 12:09:15;;;;;;;6.40;4.07;;;;;;;35.95;24.22;99214.09;5123684;28;21320;-73
2022/08/18 12:11:54;;;;;;;11.27;5.00;;;;;;;36.02;24.16;99208.00;5108922;28;20294;-73